Avernas-le-Bauduin Airfield UL

EBAV · Hainaut, Wallonia, 比利时

罗盘
风向 的 风向 340° Avernas-le-Bauduin Airfield UL 5/23
风: 5 kt, 2 beaufort

2 kt

5 kt
改变
0 ft 1.000 2.000 3.000 4.000 5.000
Cloud Cloud Cloud Cloud
SCT 500
Cloud Cloud Cloud Cloud Cloud Cloud
BKN 1.500
Cloud Cloud Cloud Cloud Cloud Cloud
BKN 2.400
METAR EBBE 211025Z 34005KT 5000 -RA SCT005 BKN015 BKN024 16/15 Q1012 YLO WHT TEMPO YLO

METAR Avernas-le-Bauduin Airfield UL - EBAV

Avernas-le-Bauduin Airfield UL是,比利时中的小机场。 该机场位于纬度50,70619和经度5,06781。 该机场有一条跑道: 5/23. 本场的ICAO机场代码为EBAV。 机场在Bruxelles FIR中。

该航空气象观测是针对Beauvechain Air Base在2024年6月21日 12:25, 当地时间进行的。

机场观察

风向为340°,速度为5 kt。

可见度为5 km。

有疏云,零星散落的云朵在500 ft的高度, 碎云在1.500 ft的高度 和 碎云在2.400 ft的高度。 破损或更高的上限为1.500 ft。

当前天气为光 雨。 温度和风寒是16 °C。 露点为15 °C,相对湿度为94%。 海平面上的气压为1012 hPa (QNH)。

发展趋势

  • 暂时的

    可变方向的风很小或没有。

白天

今天,太阳从05:26升起,在21:56降落。 这适用于Avernas-le-Bauduin Airfield UL,世界夏令时可能有所不同。 当地时间与世界标准时间之间的时差为+2 小时。 夏令时目前正在进行中。

公司介绍

在这个机场,你可以找到飞行俱乐部。 本场上唯一已知的公司是Aero Hesbaye。

体会

到Vliegles.nl去找飞行课程,跳伞和其他飞行体验。 浏览页面,了解Avernas-le-Bauduin Airfield UL附近所有可用的活动。 你也可以使用搜索功能来寻找你所在地附近的特定飞行课程、跳伞或其他飞行体验。

跑道

Id 标题 侧风 逆风 侧风 %
5/23 048°-228° 5 kt 2 kt 93 %

逆风成分最大的方向会被突出显示,并用于横风计算。 这并不一定意味着这个方向在使用。

乌云

500 ft SCT 疏云,零星散落的云朵
1.500 ft BKN 碎云
2.400 ft BKN 碎云

温度 & 天气

天气 光 雨
温度 16 °C
露点 15 °C
相对湿度 94%
Kp-index 0 (0-9)

白天

日出
05:27
中午
13:42
日落
21:57 (9:01)

小工具

你想在你的网站上有一个关于Avernas-le-Bauduin Airfield UL的当前航空天气(METAR)的小部件吗?

显示HTML代码
报告变更